sensor_id;sensor_type;location;lat;lon;timestamp;pressure;altitude;pressure_sealevel;temperature;humidity
48652;BME280;34442;52.362;-1.302;2023-04-07T00:02:23;100544.47;;;7.40;100.00
48652;BME280;34442;52.362;-1.302;2023-04-07T00:04:48;100544.78;;;7.45;100.00
48652;BME280;34442;52.362;-1.302;2023-04-07T00:07:13;100546.22;;;7.48;100.00
48652;BME280;34442;52.362;-1.302;2023-04-07T00:09:39;100555.34;;;7.39;100.00
48652;BME280;34442;52.362;-1.302;2023-04-07T00:12:04;100555.91;;;7.34;100.00
48652;BME280;34442;52.362;-1.302;2023-04-07T00:14:29;100555.72;;;7.36;100.00
48652;BME280;34442;52.362;-1.302;2023-04-07T00:16:55;100543.63;;;7.40;100.00
48652;BME280;34442;52.362;-1.302;2023-04-07T00:19:20;100557.69;;;7.42;100.00
48652;BME280;34442;52.362;-1.302;2023-04-07T00:21:46;100559.31;;;7.43;100.00
48652;BME280;34442;52.362;-1.302;2023-04-07T00:24:11;100555.34;;;7.39;100.00
48652;BME280;34442;52.362;-1.302;2023-04-07T00:26:37;100563.84;;;7.42;100.00
48652;BME280;34442;52.362;-1.302;2023-04-07T00:29:02;100565.09;;;7.32;100.00
48652;BME280;34442;52.362;-1.302;2023-04-07T00:31:27;100569.56;;;7.39;100.00
48652;BME280;34442;52.362;-1.302;2023-04-07T00:33:53;100566.94;;;7.31;100.00
48652;BME280;34442;52.362;-1.302;2023-04-07T00:36:20;100577.78;;;7.38;100.00
48652;BME280;34442;52.362;-1.302;2023-04-07T00:38:45;100581.97;;;7.32;100.00
48652;BME280;34442;52.362;-1.302;2023-04-07T00:41:10;100585.88;;;7.30;100.00
48652;BME280;34442;52.362;-1.302;2023-04-07T00:43:36;100586.88;;;7.29;100.00
48652;BME280;34442;52.362;-1.302;2023-04-07T00:46:01;100579.75;;;7.21;100.00
48652;BME280;34442;52.362;-1.302;2023-04-07T00:48:27;100584.44;;;7.19;100.00
48652;BME280;34442;52.362;-1.302;2023-04-07T00:50:52;100591.44;;;7.20;100.00
48652;BME280;34442;52.362;-1.302;2023-04-07T00:53:18;100586.00;;;7.13;100.00
48652;BME280;34442;52.362;-1.302;2023-04-07T00:55:45;100593.47;;;7.18;100.00
48652;BME280;34442;52.362;-1.302;2023-04-07T00:58:10;100591.00;;;7.16;100.00
48652;BME280;34442;52.362;-1.302;2023-04-07T01:00:48;100598.81;;;7.18;100.00
48652;BME280;34442;52.362;-1.302;2023-04-07T01:03:24;100592.94;;;7.22;100.00
48652;BME280;34442;52.362;-1.302;2023-04-07T01:05:56;100595.09;;;7.04;100.00
48652;BME280;34442;52.362;-1.302;2023-04-07T01:08:56;100590.16;;;7.16;100.00
48652;BME280;34442;52.362;-1.302;2023-04-07T01:14:17;100587.22;;;7.03;100.00
48652;BME280;34442;52.362;-1.302;2023-04-07T01:16:45;100596.22;;;7.10;100.00
48652;BME280;34442;52.362;-1.302;2023-04-07T01:19:36;100594.84;;;7.14;100.00
48652;BME280;34442;52.362;-1.302;2023-04-07T01:22:14;100591.53;;;7.12;100.00
48652;BME280;34442;52.362;-1.302;2023-04-07T01:30:28;100599.66;;;6.95;100.00
48652;BME280;34442;52.362;-1.302;2023-04-07T01:32:57;100593.78;;;7.00;100.00
48652;BME280;34442;52.362;-1.302;2023-04-07T01:35:25;100584.81;;;6.93;100.00
48652;BME280;34442;52.362;-1.302;2023-04-07T01:37:53;100595.97;;;6.96;100.00
48652;BME280;34442;52.362;-1.302;2023-04-07T01:40:20;100595.63;;;7.00;100.00
48652;BME280;34442;52.362;-1.302;2023-04-07T01:42:47;100592.16;;;6.91;100.00
48652;BME280;34442;52.362;-1.302;2023-04-07T01:45:15;100597.69;;;6.89;100.00
48652;BME280;34442;52.362;-1.302;2023-04-07T01:47:41;100599.06;;;6.85;100.00
48652;BME280;34442;52.362;-1.302;2023-04-07T01:50:10;100600.41;;;6.81;100.00
48652;BME280;34442;52.362;-1.302;2023-04-07T01:52:37;100609.94;;;6.84;100.00
48652;BME280;34442;52.362;-1.302;2023-04-07T01:55:04;100612.28;;;6.79;100.00
48652;BME280;34442;52.362;-1.302;2023-04-07T01:57:30;100611.16;;;6.73;100.00
48652;BME280;34442;52.362;-1.302;2023-04-07T01:59:55;100614.84;;;6.72;100.00
48652;BME280;34442;52.362;-1.302;2023-04-07T02:02:21;100613.28;;;6.78;100.00
48652;BME280;34442;52.362;-1.302;2023-04-07T02:05:03;100619.66;;;6.77;100.00
48652;BME280;34442;52.362;-1.302;2023-04-07T02:07:45;100614.25;;;6.85;100.00
48652;BME280;34442;52.362;-1.302;2023-04-07T02:10:15;100608.78;;;6.78;100.00
48652;BME280;34442;52.362;-1.302;2023-04-07T02:12:43;100611.44;;;6.78;100.00
48652;BME280;34442;52.362;-1.302;2023-04-07T02:15:11;100619.47;;;6.78;100.00
48652;BME280;34442;52.362;-1.302;2023-04-07T02:17:38;100614.50;;;6.75;100.00
48652;BME280;34442;52.362;-1.302;2023-04-07T02:20:08;100604.78;;;6.74;100.00
48652;BME280;34442;52.362;-1.302;2023-04-07T02:22:37;100606.97;;;6.70;100.00
48652;BME280;34442;52.362;-1.302;2023-04-07T02:25:23;100604.84;;;6.66;100.00
48652;BME280;34442;52.362;-1.302;2023-04-07T02:27:48;100600.69;;;6.63;100.00
48652;BME280;34442;52.362;-1.302;2023-04-07T02:30:14;100610.84;;;6.68;100.00
48652;BME280;34442;52.362;-1.302;2023-04-07T02:32:39;100602.16;;;6.66;100.00
48652;BME280;34442;52.362;-1.302;2023-04-07T02:35:05;100587.72;;;6.52;100.00
48652;BME280;34442;52.362;-1.302;2023-04-07T02:37:31;100589.69;;;6.58;100.00
48652;BME280;34442;52.362;-1.302;2023-04-07T02:39:56;100593.38;;;6.57;100.00
48652;BME280;34442;52.362;-1.302;2023-04-07T02:42:21;100588.59;;;6.44;100.00
48652;BME280;34442;52.362;-1.302;2023-04-07T02:44:47;100580.69;;;6.59;100.00
48652;BME280;34442;52.362;-1.302;2023-04-07T02:47:12;100580.00;;;6.57;100.00
48652;BME280;34442;52.362;-1.302;2023-04-07T02:49:38;100581.03;;;6.56;100.00
48652;BME280;34442;52.362;-1.302;2023-04-07T02:52:03;100588.56;;;6.53;100.00
48652;BME280;34442;52.362;-1.302;2023-04-07T02:54:28;100583.41;;;6.51;100.00
48652;BME280;34442;52.362;-1.302;2023-04-07T02:56:54;100593.25;;;6.51;100.00
48652;BME280;34442;52.362;-1.302;2023-04-07T02:59:20;100594.63;;;7.01;100.00
48652;BME280;34442;52.362;-1.302;2023-04-07T03:01:46;100591.63;;;6.72;100.00
48652;BME280;34442;52.362;-1.302;2023-04-07T03:04:12;100596.94;;;6.41;100.00
48652;BME280;34442;52.362;-1.302;2023-04-07T03:06:37;100598.97;;;6.39;100.00
48652;BME280;34442;52.362;-1.302;2023-04-07T03:09:02;100597.13;;;6.40;100.00
48652;BME280;34442;52.362;-1.302;2023-04-07T03:11:28;100600.63;;;6.40;100.00
48652;BME280;34442;52.362;-1.302;2023-04-07T03:13:53;100597.16;;;6.32;100.00
48652;BME280;34442;52.362;-1.302;2023-04-07T03:16:19;100608.00;;;6.38;100.00
48652;BME280;34442;52.362;-1.302;2023-04-07T03:18:44;100606.81;;;6.41;100.00
48652;BME280;34442;52.362;-1.302;2023-04-07T03:21:09;100601.84;;;6.38;100.00
48652;BME280;34442;52.362;-1.302;2023-04-07T03:23:35;100599.31;;;6.36;100.00
48652;BME280;34442;52.362;-1.302;2023-04-07T03:26:01;100603.00;;;6.35;100.00
48652;BME280;34442;52.362;-1.302;2023-04-07T03:28:27;100608.34;;;6.35;100.00
48652;BME280;34442;52.362;-1.302;2023-04-07T03:30:52;100614.16;;;6.39;100.00
48652;BME280;34442;52.362;-1.302;2023-04-07T03:33:17;100608.03;;;6.30;100.00
48652;BME280;34442;52.362;-1.302;2023-04-07T03:35:43;100606.84;;;6.33;100.00
48652;BME280;34442;52.362;-1.302;2023-04-07T03:38:08;100600.84;;;6.31;100.00
48652;BME280;34442;52.362;-1.302;2023-04-07T03:40:34;100604.69;;;6.28;100.00
48652;BME280;34442;52.362;-1.302;2023-04-07T03:42:59;100607.22;;;6.21;100.00
48652;BME280;34442;52.362;-1.302;2023-04-07T03:45:25;100610.88;;;6.20;100.00
48652;BME280;34442;52.362;-1.302;2023-04-07T03:47:50;100609.91;;;6.21;100.00
48652;BME280;34442;52.362;-1.302;2023-04-07T03:50:16;100609.41;;;6.18;100.00
48652;BME280;34442;52.362;-1.302;2023-04-07T03:52:42;100606.91;;;6.16;100.00
48652;BME280;34442;52.362;-1.302;2023-04-07T03:55:07;100602.06;;;6.12;100.00
48652;BME280;34442;52.362;-1.302;2023-04-07T03:57:33;100620.94;;;6.10;100.00
48652;BME280;34442;52.362;-1.302;2023-04-07T03:59:58;100613.09;;;6.09;100.00
48652;BME280;34442;52.362;-1.302;2023-04-07T04:02:24;100611.94;;;6.03;100.00
48652;BME280;34442;52.362;-1.302;2023-04-07T04:04:49;100608.44;;;6.03;100.00
48652;BME280;34442;52.362;-1.302;2023-04-07T04:07:15;100610.13;;;5.95;100.00
48652;BME280;34442;52.362;-1.302;2023-04-07T04:09:40;100610.63;;;5.91;100.00
48652;BME280;34442;52.362;-1.302;2023-04-07T04:12:06;100609.78;;;5.90;100.00
48652;BME280;34442;52.362;-1.302;2023-04-07T04:14:31;100612.97;;;5.86;100.00
48652;BME280;34442;52.362;-1.302;2023-04-07T04:16:57;100614.31;;;5.82;100.00
48652;BME280;34442;52.362;-1.302;2023-04-07T04:19:22;100611.81;;;5.80;100.00
48652;BME280;34442;52.362;-1.302;2023-04-07T04:21:48;100615.66;;;5.78;100.00
48652;BME280;34442;52.362;-1.302;2023-04-07T04:24:13;100622.16;;;5.75;100.00
48652;BME280;34442;52.362;-1.302;2023-04-07T04:26:39;100618.66;;;5.75;100.00
48652;BME280;34442;52.362;-1.302;2023-04-07T04:29:04;100624.16;;;5.73;100.00
48652;BME280;34442;52.362;-1.302;2023-04-07T04:31:30;100627.47;;;5.75;100.00
48652;BME280;34442;52.362;-1.302;2023-04-07T04:33:55;100624.81;;;5.67;100.00
48652;BME280;34442;52.362;-1.302;2023-04-07T04:36:21;100626.16;;;5.63;100.00
48652;BME280;34442;52.362;-1.302;2023-04-07T04:38:46;100633.19;;;5.56;100.00
48652;BME280;34442;52.362;-1.302;2023-04-07T04:41:11;100638.84;;;5.53;100.00
48652;BME280;34442;52.362;-1.302;2023-04-07T04:43:37;100645.00;;;5.53;100.00
48652;BME280;34442;52.362;-1.302;2023-04-07T04:46:02;100651.50;;;5.51;100.00
48652;BME280;34442;52.362;-1.302;2023-04-07T04:48:28;100651.19;;;5.45;100.00
48652;BME280;34442;52.362;-1.302;2023-04-07T04:50:53;100654.84;;;5.44;100.00
48652;BME280;34442;52.362;-1.302;2023-04-07T04:53:19;100660.84;;;5.46;100.00
48652;BME280;34442;52.362;-1.302;2023-04-07T04:55:44;100655.50;;;5.46;100.00
48652;BME280;34442;52.362;-1.302;2023-04-07T04:58:12;100654.84;;;5.44;100.00
48652;BME280;34442;52.362;-1.302;2023-04-07T05:00:37;100655.19;;;5.41;100.00
48652;BME280;34442;52.362;-1.302;2023-04-07T05:03:03;100659.50;;;5.42;100.00
48652;BME280;34442;52.362;-1.302;2023-04-07T05:05:28;100666.84;;;5.40;100.00
48652;BME280;34442;52.362;-1.302;2023-04-07T05:07:54;100670.53;;;5.47;100.00
48652;BME280;34442;52.362;-1.302;2023-04-07T05:10:19;100663.50;;;5.46;100.00
48652;BME280;34442;52.362;-1.302;2023-04-07T05:12:45;100675.00;;;5.47;100.00
48652;BME280;34442;52.362;-1.302;2023-04-07T05:15:10;100676.69;;;5.48;100.00
48652;BME280;34442;52.362;-1.302;2023-04-07T05:17:36;100679.16;;;5.50;100.00
48652;BME280;34442;52.362;-1.302;2023-04-07T05:20:04;100685.50;;;5.48;100.00
48652;BME280;34442;52.362;-1.302;2023-04-07T05:22:29;100680.19;;;5.48;100.00
48652;BME280;34442;52.362;-1.302;2023-04-07T05:24:55;100683.84;;;5.47;100.00
48652;BME280;34442;52.362;-1.302;2023-04-07T05:27:20;100686.16;;;5.51;100.00
48652;BME280;34442;52.362;-1.302;2023-04-07T05:29:46;100684.19;;;5.53;100.00
48652;BME280;34442;52.362;-1.302;2023-04-07T05:32:11;100695.84;;;5.52;100.00
48652;BME280;34442;52.362;-1.302;2023-04-07T05:34:36;100695.84;;;5.52;100.00
48652;BME280;34442;52.362;-1.302;2023-04-07T05:37:02;100695.34;;;5.56;100.00
48652;BME280;34442;52.362;-1.302;2023-04-07T05:39:27;100694.84;;;5.53;100.00
48652;BME280;34442;52.362;-1.302;2023-04-07T05:41:53;100698.66;;;5.50;100.00
48652;BME280;34442;52.362;-1.302;2023-04-07T05:44:18;100685.84;;;5.45;100.00
48652;BME280;34442;52.362;-1.302;2023-04-07T05:46:44;100689.00;;;5.41;100.00
48652;BME280;34442;52.362;-1.302;2023-04-07T05:49:09;100691.50;;;5.42;100.00
48652;BME280;34442;52.362;-1.302;2023-04-07T05:51:34;100696.69;;;5.44;100.00
48652;BME280;34442;52.362;-1.302;2023-04-07T05:54:01;100692.81;;;5.46;100.00
48652;BME280;34442;52.362;-1.302;2023-04-07T05:56:27;100703.84;;;5.52;100.00
48652;BME280;34442;52.362;-1.302;2023-04-07T05:58:53;100702.03;;;5.52;100.00
48652;BME280;34442;52.362;-1.302;2023-04-07T06:01:18;100707.16;;;5.54;100.00
48652;BME280;34442;52.362;-1.302;2023-04-07T06:03:44;100706.53;;;5.52;100.00
48652;BME280;34442;52.362;-1.302;2023-04-07T06:06:10;100710.66;;;5.54;100.00
48652;BME280;34442;52.362;-1.302;2023-04-07T06:08:35;100714.16;;;5.55;100.00
48652;BME280;34442;52.362;-1.302;2023-04-07T06:11:01;100713.00;;;5.57;100.00
48652;BME280;34442;52.362;-1.302;2023-04-07T06:13:26;100716.34;;;5.59;100.00
48652;BME280;34442;52.362;-1.302;2023-04-07T06:15:54;100719.81;;;6.33;100.00
48652;BME280;34442;52.362;-1.302;2023-04-07T06:18:20;100720.34;;;6.04;100.00
48652;BME280;34442;52.362;-1.302;2023-04-07T06:20:46;100724.84;;;5.87;100.00
48652;BME280;34442;52.362;-1.302;2023-04-07T06:23:11;100727.72;;;5.94;100.00
48652;BME280;34442;52.362;-1.302;2023-04-07T06:25:37;100728.53;;;5.94;100.00
48652;BME280;34442;52.362;-1.302;2023-04-07T06:28:02;100725.88;;;6.03;100.00
48652;BME280;34442;52.362;-1.302;2023-04-07T06:30:28;100730.06;;;6.05;100.00
48652;BME280;34442;52.362;-1.302;2023-04-07T06:32:53;100741.19;;;6.09;100.00
48652;BME280;34442;52.362;-1.302;2023-04-07T06:35:19;100739.38;;;6.17;100.00
48652;BME280;34442;52.362;-1.302;2023-04-07T06:37:44;100748.88;;;6.20;100.00
48652;BME280;34442;52.362;-1.302;2023-04-07T06:40:10;100737.50;;;6.34;100.00
48652;BME280;34442;52.362;-1.302;2023-04-07T06:42:35;100744.69;;;6.34;100.00
48652;BME280;34442;52.362;-1.302;2023-04-07T06:45:01;100752.69;;;6.34;100.00
48652;BME280;34442;52.362;-1.302;2023-04-07T06:47:26;100747.69;;;6.39;100.00
48652;BME280;34442;52.362;-1.302;2023-04-07T06:49:52;100754.16;;;6.44;100.00
48652;BME280;34442;52.362;-1.302;2023-04-07T06:52:17;100754.00;;;6.46;100.00
48652;BME280;34442;52.362;-1.302;2023-04-07T06:54:43;100760.19;;;6.46;100.00
48652;BME280;34442;52.362;-1.302;2023-04-07T06:57:08;100759.47;;;6.53;100.00
48652;BME280;34442;52.362;-1.302;2023-04-07T06:59:39;100763.78;;;6.62;100.00
48652;BME280;34442;52.362;-1.302;2023-04-07T07:02:04;100763.78;;;6.62;100.00
48652;BME280;34442;52.362;-1.302;2023-04-07T07:04:32;100767.63;;;6.67;100.00
48652;BME280;34442;52.362;-1.302;2023-04-07T07:06:58;100763.25;;;6.75;100.00
48652;BME280;34442;52.362;-1.302;2023-04-07T07:09:23;100764.09;;;6.75;100.00
48652;BME280;34442;52.362;-1.302;2023-04-07T07:11:49;100771.25;;;6.83;100.00
48652;BME280;34442;52.362;-1.302;2023-04-07T07:14:14;100776.09;;;6.87;100.00
48652;BME280;34442;52.362;-1.302;2023-04-07T07:16:40;100779.41;;;6.89;100.00
48652;BME280;34442;52.362;-1.302;2023-04-07T07:19:05;100783.75;;;6.90;100.00
48652;BME280;34442;52.362;-1.302;2023-04-07T07:21:31;100784.75;;;6.89;100.00
48652;BME280;34442;52.362;-1.302;2023-04-07T07:23:58;100788.06;;;7.00;100.00
48652;BME280;34442;52.362;-1.302;2023-04-07T07:26:25;100791.06;;;7.05;100.00
48652;BME280;34442;52.362;-1.302;2023-04-07T07:28:51;100794.75;;;7.66;100.00
48652;BME280;34442;52.362;-1.302;2023-04-07T07:31:16;100785.03;;;7.42;100.00
48652;BME280;34442;52.362;-1.302;2023-04-07T07:33:43;100791.78;;;7.30;100.00
48652;BME280;34442;52.362;-1.302;2023-04-07T07:36:10;100794.09;;;7.33;100.00
48652;BME280;34442;52.362;-1.302;2023-04-07T07:38:36;100800.31;;;7.25;100.00
48652;BME280;34442;52.362;-1.302;2023-04-07T07:41:02;100806.28;;;7.35;100.00
48652;BME280;34442;52.362;-1.302;2023-04-07T07:43:28;100801.63;;;7.29;100.00
48652;BME280;34442;52.362;-1.302;2023-04-07T07:45:53;100795.88;;;7.40;100.00
48652;BME280;34442;52.362;-1.302;2023-04-07T07:48:19;100797.88;;;7.46;100.00
48652;BME280;34442;52.362;-1.302;2023-04-07T07:50:44;100799.31;;;7.57;100.00
48652;BME280;34442;52.362;-1.302;2023-04-07T07:53:11;100802.78;;;7.66;100.00
48652;BME280;34442;52.362;-1.302;2023-04-07T07:55:36;100795.38;;;7.68;100.00
48652;BME280;34442;52.362;-1.302;2023-04-07T07:58:02;100805.94;;;7.69;100.00
48652;BME280;34442;52.362;-1.302;2023-04-07T08:00:27;100798.19;;;7.97;100.00
48652;BME280;34442;52.362;-1.302;2023-04-07T08:02:53;100811.88;;;8.03;100.00
48652;BME280;34442;52.362;-1.302;2023-04-07T08:05:18;100816.91;;;7.97;100.00
48652;BME280;34442;52.362;-1.302;2023-04-07T08:07:44;100804.78;;;8.10;100.00
48652;BME280;34442;52.362;-1.302;2023-04-07T08:10:11;100796.72;;;8.33;100.00
48652;BME280;34442;52.362;-1.302;2023-04-07T08:12:36;100801.00;;;8.42;100.00
48652;BME280;34442;52.362;-1.302;2023-04-07T08:15:02;100799.75;;;8.53;100.00
48652;BME280;34442;52.362;-1.302;2023-04-07T08:17:28;100801.50;;;8.60;100.00
48652;BME280;34442;52.362;-1.302;2023-04-07T08:19:53;100804.09;;;8.54;100.00
48652;BME280;34442;52.362;-1.302;2023-04-07T08:22:19;100805.09;;;8.67;100.00
48652;BME280;34442;52.362;-1.302;2023-04-07T08:24:45;100798.47;;;8.78;100.00
48652;BME280;34442;52.362;-1.302;2023-04-07T08:27:12;100804.00;;;8.91;100.00
48652;BME280;34442;52.362;-1.302;2023-04-07T08:29:37;100802.53;;;8.89;100.00
48652;BME280;34442;52.362;-1.302;2023-04-07T08:32:06;100807.16;;;8.95;100.00
48652;BME280;34442;52.362;-1.302;2023-04-07T08:34:31;100804.94;;;9.13;100.00
48652;BME280;34442;52.362;-1.302;2023-04-07T08:36:56;100799.38;;;9.15;100.00
48652;BME280;34442;52.362;-1.302;2023-04-07T08:39:22;100798.81;;;9.19;100.00
48652;BME280;34442;52.362;-1.302;2023-04-07T08:41:50;100807.94;;;9.25;100.00
48652;BME280;34442;52.362;-1.302;2023-04-07T08:44:15;100809.25;;;9.29;100.00
48652;BME280;34442;52.362;-1.302;2023-04-07T08:46:42;100817.84;;;9.39;100.00
48652;BME280;34442;52.362;-1.302;2023-04-07T08:49:11;100809.03;;;9.45;100.00
48652;BME280;34442;52.362;-1.302;2023-04-07T08:51:44;100808.91;;;9.54;100.00
48652;BME280;34442;52.362;-1.302;2023-04-07T08:54:12;100814.28;;;9.54;100.00
48652;BME280;34442;52.362;-1.302;2023-04-07T08:56:39;100817.88;;;9.61;100.00
48652;BME280;34442;52.362;-1.302;2023-04-07T08:59:06;100810.63;;;9.76;100.00
48652;BME280;34442;52.362;-1.302;2023-04-07T09:01:34;100815.63;;;9.79;100.00
48652;BME280;34442;52.362;-1.302;2023-04-07T09:04:02;100816.50;;;9.86;100.00
48652;BME280;34442;52.362;-1.302;2023-04-07T09:06:29;100812.59;;;9.89;100.00
48652;BME280;34442;52.362;-1.302;2023-04-07T09:08:56;100813.09;;;9.78;100.00
48652;BME280;34442;52.362;-1.302;2023-04-07T09:11:22;100808.13;;;9.96;100.00
48652;BME280;34442;52.362;-1.302;2023-04-07T09:13:48;100810.03;;;10.02;100.00
48652;BME280;34442;52.362;-1.302;2023-04-07T09:16:14;100810.22;;;10.22;100.00
48652;BME280;34442;52.362;-1.302;2023-04-07T09:18:40;100806.97;;;10.27;100.00
48652;BME280;34442;52.362;-1.302;2023-04-07T09:21:07;100813.88;;;10.36;100.00
48652;BME280;34442;52.362;-1.302;2023-04-07T09:23:34;100811.47;;;10.41;100.00
48652;BME280;34442;52.362;-1.302;2023-04-07T09:28:47;100810.72;;;10.54;100.00
48652;BME280;34442;52.362;-1.302;2023-04-07T09:31:12;100806.19;;;10.89;100.00
48652;BME280;34442;52.362;-1.302;2023-04-07T09:33:38;100807.31;;;10.73;100.00
48652;BME280;34442;52.362;-1.302;2023-04-07T09:36:04;100801.88;;;10.95;100.00
48652;BME280;34442;52.362;-1.302;2023-04-07T09:38:37;100804.16;;;10.98;100.00
48652;BME280;34442;52.362;-1.302;2023-04-07T09:41:14;100804.22;;;11.11;100.00
48652;BME280;34442;52.362;-1.302;2023-04-07T09:43:47;100807.00;;;11.24;100.00
48652;BME280;34442;52.362;-1.302;2023-04-07T09:46:16;100800.19;;;11.28;100.00
48652;BME280;34442;52.362;-1.302;2023-04-07T09:48:44;100799.00;;;11.51;100.00
48652;BME280;34442;52.362;-1.302;2023-04-07T09:51:15;100800.25;;;11.55;100.00
48652;BME280;34442;52.362;-1.302;2023-04-07T09:56:07;100805.75;;;11.27;100.00
48652;BME280;34442;52.362;-1.302;2023-04-07T09:58:33;100810.41;;;11.53;100.00
48652;BME280;34442;52.362;-1.302;2023-04-07T10:00:59;100803.53;;;11.43;100.00
48652;BME280;34442;52.362;-1.302;2023-04-07T10:03:25;100812.28;;;11.59;100.00
48652;BME280;34442;52.362;-1.302;2023-04-07T10:05:51;100808.38;;;11.75;100.00
48652;BME280;34442;52.362;-1.302;2023-04-07T10:08:18;100806.06;;;11.58;100.00
48652;BME280;34442;52.362;-1.302;2023-04-07T10:10:44;100812.28;;;11.59;100.00
48652;BME280;34442;52.362;-1.302;2023-04-07T10:13:10;100809.44;;;11.74;100.00
48652;BME280;34442;52.362;-1.302;2023-04-07T10:15:36;100814.06;;;11.86;100.00
48652;BME280;34442;52.362;-1.302;2023-04-07T10:18:04;100812.00;;;12.08;100.00
48652;BME280;34442;52.362;-1.302;2023-04-07T10:20:32;100808.06;;;11.98;100.00
48652;BME280;34442;52.362;-1.302;2023-04-07T10:23:04;100804.34;;;12.38;100.00
48652;BME280;34442;52.362;-1.302;2023-04-07T10:25:32;100802.66;;;12.51;100.00
48652;BME280;34442;52.362;-1.302;2023-04-07T10:28:05;100802.25;;;12.54;100.00
48652;BME280;34442;52.362;-1.302;2023-04-07T10:30:32;100797.06;;;12.46;100.00
48652;BME280;34442;52.362;-1.302;2023-04-07T10:32:59;100798.53;;;12.41;100.00
48652;BME280;34442;52.362;-1.302;2023-04-07T10:35:24;100794.56;;;12.64;100.00
48652;BME280;34442;52.362;-1.302;2023-04-07T10:38:10;100795.16;;;12.79;97.58
48652;BME280;34442;52.362;-1.302;2023-04-07T10:40:38;100795.56;;;12.96;100.00
48652;BME280;34442;52.362;-1.302;2023-04-07T10:43:07;100797.84;;;12.86;100.00
48652;BME280;34442;52.362;-1.302;2023-04-07T10:48:22;100789.97;;;12.78;100.00
48652;BME280;34442;52.362;-1.302;2023-04-07T10:53:36;100791.16;;;12.95;100.00
48652;BME280;34442;52.362;-1.302;2023-04-07T10:56:02;100798.03;;;12.98;100.00
48652;BME280;34442;52.362;-1.302;2023-04-07T10:58:29;100787.47;;;12.96;100.00
48652;BME280;34442;52.362;-1.302;2023-04-07T11:03:41;100784.34;;;12.93;95.51
48652;BME280;34442;52.362;-1.302;2023-04-07T11:06:16;100781.38;;;13.07;99.19
48652;BME280;34442;52.362;-1.302;2023-04-07T11:08:46;100778.03;;;13.19;97.63
48652;BME280;34442;52.362;-1.302;2023-04-07T11:11:13;100782.75;;;13.36;99.23
48652;BME280;34442;52.362;-1.302;2023-04-07T11:13:40;100787.47;;;13.48;99.16
48652;BME280;34442;52.362;-1.302;2023-04-07T11:16:06;100783.63;;;13.30;98.53
48652;BME280;34442;52.362;-1.302;2023-04-07T11:18:33;100783.78;;;13.35;97.51
48652;BME280;34442;52.362;-1.302;2023-04-07T11:20:59;100783.19;;;13.33;97.82
48652;BME280;34442;52.362;-1.302;2023-04-07T11:23:25;100776.69;;;13.41;96.74
48652;BME280;34442;52.362;-1.302;2023-04-07T11:25:59;100771.75;;;13.31;91.47
48652;BME280;34442;52.362;-1.302;2023-04-07T11:28:31;100774.63;;;13.36;95.18
48652;BME280;34442;52.362;-1.302;2023-04-07T11:30:57;100773.63;;;13.37;96.41
48652;BME280;34442;52.362;-1.302;2023-04-07T11:33:26;100785.81;;;13.47;94.25
48652;BME280;34442;52.362;-1.302;2023-04-07T11:35:54;100779.84;;;13.38;93.78
48652;BME280;34442;52.362;-1.302;2023-04-07T11:38:22;100782.53;;;13.38;91.82
48652;BME280;34442;52.362;-1.302;2023-04-07T11:40:48;100781.25;;;13.47;92.03
48652;BME280;34442;52.362;-1.302;2023-04-07T11:43:17;100772.91;;;13.49;90.50
48652;BME280;34442;52.362;-1.302;2023-04-07T11:45:43;100780.88;;;13.75;91.03
48652;BME280;34442;52.362;-1.302;2023-04-07T11:48:28;100770.09;;;13.69;76.86
48652;BME280;34442;52.362;-1.302;2023-04-07T11:50:53;100773.63;;;13.69;91.35
48652;BME280;34442;52.362;-1.302;2023-04-07T11:53:33;100776.84;;;13.53;81.76
48652;BME280;34442;52.362;-1.302;2023-04-07T11:56:15;100773.22;;;13.65;79.75
48652;BME280;34442;52.362;-1.302;2023-04-07T11:58:52;100779.13;;;13.49;84.47
48652;BME280;34442;52.362;-1.302;2023-04-07T12:01:18;100772.38;;;13.72;90.59
48652;BME280;34442;52.362;-1.302;2023-04-07T12:04:01;100767.13;;;14.08;83.93
48652;BME280;34442;52.362;-1.302;2023-04-07T12:08:54;100777.94;;;14.08;87.19
48652;BME280;34442;52.362;-1.302;2023-04-07T12:11:19;100785.66;;;13.73;89.19
48652;BME280;34442;52.362;-1.302;2023-04-07T12:13:45;100787.97;;;13.25;89.07
48652;BME280;34442;52.362;-1.302;2023-04-07T12:16:10;100782.81;;;13.23;89.62
48652;BME280;34442;52.362;-1.302;2023-04-07T12:18:36;100781.91;;;13.36;88.72
48652;BME280;34442;52.362;-1.302;2023-04-07T12:21:02;100778.28;;;13.55;87.87
48652;BME280;34442;52.362;-1.302;2023-04-07T12:23:27;100772.84;;;13.94;86.19
48652;BME280;34442;52.362;-1.302;2023-04-07T12:25:53;100780.94;;;13.94;86.63
48652;BME280;34442;52.362;-1.302;2023-04-07T12:28:18;100773.47;;;13.96;87.32
48652;BME280;34442;52.362;-1.302;2023-04-07T12:30:43;100765.09;;;14.04;87.28
48652;BME280;34442;52.362;-1.302;2023-04-07T12:33:09;100769.09;;;13.95;87.80
48652;BME280;34442;52.362;-1.302;2023-04-07T12:35:34;100773.34;;;13.84;87.81
48652;BME280;34442;52.362;-1.302;2023-04-07T12:38:01;100768.38;;;13.74;87.77
48652;BME280;34442;52.362;-1.302;2023-04-07T12:40:27;100770.47;;;13.79;86.60
48652;BME280;34442;52.362;-1.302;2023-04-07T12:42:53;100770.84;;;13.51;86.55
48652;BME280;34442;52.362;-1.302;2023-04-07T12:45:19;100775.44;;;13.44;85.82
48652;BME280;34442;52.362;-1.302;2023-04-07T12:47:44;100776.25;;;13.44;87.21
48652;BME280;34442;52.362;-1.302;2023-04-07T12:50:10;100772.00;;;13.30;86.22
48652;BME280;34442;52.362;-1.302;2023-04-07T12:52:36;100780.09;;;13.16;87.12
48652;BME280;34442;52.362;-1.302;2023-04-07T12:55:01;100775.97;;;13.14;84.23
48652;BME280;34442;52.362;-1.302;2023-04-07T12:57:27;100767.88;;;13.14;83.68
48652;BME280;34442;52.362;-1.302;2023-04-07T12:59:53;100775.31;;;13.19;86.00
48652;BME280;34442;52.362;-1.302;2023-04-07T13:02:19;100774.56;;;12.98;86.27